Terminal Aerodrome Forecast
Issued by NWS

Home | Current Version | Previous Version | Text Only | Print | Product List | Glossary On
Versions: 1 2 3 4 5 6 7 8 9 10 11 12
000
FTUS44 KLIX 032348
TAFMCB
TAF
KMCB 032348Z 0400/0424 10011KT P6SM -RA OVC030
      TEMPO 0406/0408 4SM -RA OVC015
     FM040800 09008KT P6SM OVC015
      TEMPO 0408/0409 4SM -RA OVC007
     FM041000 08008KT 5SM -RA OVC008
     FM041200 07006KT 3SM SHRA OVC003
     FM041800 01004KT 3SM SHRA OVC003=

USA.gov is the U.S. government's official web portal to all federal, state and local government web resources and services.